Time;durP1;ratioP1;P1;durP2;ratioP2;P2;SDS_P1;SDS_P2;PMS_P1;PMS_P2;Temp;Humidity;BMP_temperature;BMP_pressure;BME280_temperature;BME280_humidity;BME280_pressure;Samples;Min_cycle;Max_cycle;Signal;HPM_P1;HPM_P2
2024/04/10 00:00:49;;;;;;;0.50;0.40;;;;;;;;;;5373772;26;20245;-40
2024/04/10 00:03:16;;;;;;;0.82;0.50;;;;;;;;;;5357179;26;20235;-40
2024/04/10 00:05:57;;;;;;;0.45;0.40;;;;;;;;;;5382282;26;20707;-40
2024/04/10 00:08:23;;;;;;;0.75;0.50;;;;;;;;;;5352024;26;20234;-40
2024/04/10 00:10:49;;;;;;;0.45;0.30;;;;;;;;;;5355256;26;20304;-41
2024/04/10 00:13:15;;;;;;;0.30;0.30;;;;;;;;;;5383816;26;20601;-40
2024/04/10 00:15:41;;;;;;;0.52;0.50;;;;;;;;;;5381502;26;20608;-40
2024/04/10 00:18:06;;;;;;;1.13;0.50;;;;;;;;;;5383479;26;20323;-40
2024/04/10 00:20:32;;;;;;;0.98;0.45;;;;;;;;;;5369568;26;20234;-40
2024/04/10 00:22:58;;;;;;;0.98;0.60;;;;;;;;;;5376227;26;20448;-40
2024/04/10 00:25:24;;;;;;;0.65;0.52;;;;;;;;;;5373101;26;20329;-40
2024/04/10 00:27:50;;;;;;;0.20;0.20;;;;;;;;;;5365624;26;20230;-40
2024/04/10 00:30:16;;;;;;;0.77;0.47;;;;;;;;;;5380428;26;20233;-40
2024/04/10 00:32:46;;;;;;;0.40;0.40;;;;;;;;;;5384680;26;20272;-40
2024/04/10 00:35:12;;;;;;;0.65;0.52;;;;;;;;;;5373850;26;20229;-40
2024/04/10 00:37:38;;;;;;;0.60;0.60;;;;;;;;;;5377311;26;20334;-40
2024/04/10 00:40:04;;;;;;;0.65;0.60;;;;;;;;;;5367128;26;20237;-40
2024/04/10 00:42:30;;;;;;;0.38;0.38;;;;;;;;;;5364173;26;20315;-40
2024/04/10 00:44:57;;;;;;;0.77;0.50;;;;;;;;;;5369318;26;20258;-40
2024/04/10 00:47:23;;;;;;;0.40;0.40;;;;;;;;;;5379910;26;20285;-40
2024/04/10 00:49:50;;;;;;;0.25;0.25;;;;;;;;;;5365385;26;20279;-40
2024/04/10 00:52:16;;;;;;;1.08;0.60;;;;;;;;;;5376621;26;20288;-40
2024/04/10 00:54:43;;;;;;;0.30;0.30;;;;;;;;;;5368880;26;20444;-40
2024/04/10 00:57:09;;;;;;;0.22;0.22;;;;;;;;;;5382221;26;20321;-40
2024/04/10 00:59:35;;;;;;;1.15;0.30;;;;;;;;;;5374883;26;20315;-40
2024/04/10 01:02:02;;;;;;;0.73;0.30;;;;;;;;;;5374405;26;20288;-40
2024/04/10 01:04:28;;;;;;;0.63;0.30;;;;;;;;;;5378080;26;20234;-40
2024/04/10 01:06:54;;;;;;;0.75;0.75;;;;;;;;;;5382435;26;20307;-40
2024/04/10 01:09:20;;;;;;;0.60;0.40;;;;;;;;;;5376884;26;20245;-40
2024/04/10 01:11:46;;;;;;;0.85;0.50;;;;;;;;;;5371507;26;20237;-40
2024/04/10 01:14:12;;;;;;;0.75;0.50;;;;;;;;;;5377068;26;20622;-40
2024/04/10 01:16:37;;;;;;;0.45;0.40;;;;;;;;;;5377909;26;20233;-40
2024/04/10 01:19:06;;;;;;;0.32;0.32;;;;;;;;;;5373531;26;20301;-40
2024/04/10 01:21:32;;;;;;;1.02;0.50;;;;;;;;;;5381628;26;20535;-40
2024/04/10 01:23:58;;;;;;;0.50;0.50;;;;;;;;;;5366144;26;20234;-40
2024/04/10 01:26:23;;;;;;;0.80;0.40;;;;;;;;;;5377248;26;20280;-40
2024/04/10 01:28:49;;;;;;;0.70;0.60;;;;;;;;;;5363273;26;20279;-40
2024/04/10 01:31:15;;;;;;;1.20;0.43;;;;;;;;;;5373663;26;20644;-40
2024/04/10 01:33:41;;;;;;;0.40;0.40;;;;;;;;;;5367376;26;20243;-40
2024/04/10 01:36:08;;;;;;;0.50;0.40;;;;;;;;;;5370700;26;20323;-40
2024/04/10 01:38:34;;;;;;;0.50;0.50;;;;;;;;;;5373448;26;20276;-40
2024/04/10 01:41:00;;;;;;;1.13;0.50;;;;;;;;;;5358577;26;20612;-40
2024/04/10 01:43:26;;;;;;;0.57;0.40;;;;;;;;;;5367969;26;20242;-40
2024/04/10 01:45:52;;;;;;;0.60;0.40;;;;;;;;;;5367181;26;20281;-40
2024/04/10 01:48:18;;;;;;;1.10;0.30;;;;;;;;;;5366507;26;20577;-40
2024/04/10 01:50:44;;;;;;;0.57;0.50;;;;;;;;;;5366225;26;20229;-40
2024/04/10 01:53:10;;;;;;;0.40;0.40;;;;;;;;;;5369667;26;20679;-40
2024/04/10 01:55:36;;;;;;;0.68;0.50;;;;;;;;;;5368700;26;20229;-40
2024/04/10 01:58:02;;;;;;;0.88;0.55;;;;;;;;;;5364586;26;20517;-40
2024/04/10 02:00:28;;;;;;;0.30;0.30;;;;;;;;;;5356617;26;20234;-40
2024/04/10 02:02:54;;;;;;;0.60;0.60;;;;;;;;;;5381498;26;20230;-40
2024/04/10 02:05:20;;;;;;;1.08;0.50;;;;;;;;;;5381996;26;20283;-40
2024/04/10 02:07:46;;;;;;;0.45;0.43;;;;;;;;;;5375021;26;20261;-40
2024/04/10 02:10:12;;;;;;;0.80;0.40;;;;;;;;;;5379070;26;20229;-40
2024/04/10 02:12:38;;;;;;;0.40;0.40;;;;;;;;;;5370121;26;20280;-40
2024/04/10 02:15:04;;;;;;;0.73;0.40;;;;;;;;;;5380405;26;20233;-40
2024/04/10 02:17:30;;;;;;;0.57;0.50;;;;;;;;;;5377877;26;20242;-40
2024/04/10 02:19:56;;;;;;;1.13;0.50;;;;;;;;;;5373980;26;20234;-40
2024/04/10 02:22:22;;;;;;;0.43;0.40;;;;;;;;;;5384293;26;20691;-40
2024/04/10 02:24:48;;;;;;;0.77;0.40;;;;;;;;;;5373312;26;20296;-40
2024/04/10 02:27:14;;;;;;;0.50;0.50;;;;;;;;;;5380059;26;20658;-40
2024/04/10 02:29:41;;;;;;;0.40;0.40;;;;;;;;;;5376633;26;20289;-40
2024/04/10 02:32:07;;;;;;;1.77;0.88;;;;;;;;;;5378363;26;20222;-40
2024/04/10 02:34:34;;;;;;;0.40;0.30;;;;;;;;;;5380545;26;20237;-40
2024/04/10 02:37:00;;;;;;;0.20;0.20;;;;;;;;;;5371836;26;22152;-40
2024/04/10 02:39:27;;;;;;;1.00;0.50;;;;;;;;;;5380256;26;20229;-40
2024/04/10 02:41:53;;;;;;;0.50;0.35;;;;;;;;;;5386052;26;20237;-40
2024/04/10 02:44:19;;;;;;;0.40;0.38;;;;;;;;;;5380097;26;20515;-40
2024/04/10 02:46:45;;;;;;;0.45;0.40;;;;;;;;;;5370600;26;20855;-40
2024/04/10 02:49:11;;;;;;;1.17;0.47;;;;;;;;;;5363806;26;20290;-40
2024/04/10 02:51:37;;;;;;;0.50;0.40;;;;;;;;;;5379225;26;20293;-40
2024/04/10 02:54:03;;;;;;;0.60;0.40;;;;;;;;;;5385702;26;20722;-40
2024/04/10 02:56:29;;;;;;;1.08;0.45;;;;;;;;;;5378598;26;20302;-40
2024/04/10 02:58:55;;;;;;;0.47;0.40;;;;;;;;;;5381776;26;20734;-40
2024/04/10 03:01:21;;;;;;;0.32;0.32;;;;;;;;;;5374022;26;20241;-40
2024/04/10 03:03:47;;;;;;;1.30;0.45;;;;;;;;;;5370839;26;20246;-40
2024/04/10 03:06:13;;;;;;;0.73;0.40;;;;;;;;;;5370336;26;20289;-40
2024/04/10 03:08:40;;;;;;;0.32;0.30;;;;;;;;;;5376437;26;20539;-40
2024/04/10 03:11:05;;;;;;;0.40;0.40;;;;;;;;;;5358743;26;20246;-40
2024/04/10 03:13:32;;;;;;;1.15;0.50;;;;;;;;;;5365301;26;20237;-40
2024/04/10 03:15:58;;;;;;;0.47;0.40;;;;;;;;;;5386646;26;20225;-40
2024/04/10 03:18:24;;;;;;;0.52;0.32;;;;;;;;;;5373413;26;20280;-40
2024/04/10 03:20:50;;;;;;;0.70;0.40;;;;;;;;;;5376115;26;20256;-41
2024/04/10 03:23:16;;;;;;;1.10;0.57;;;;;;;;;;5371589;26;20241;-38
2024/04/10 03:25:42;;;;;;;9.77;1.15;;;;;;;;;;5388364;26;20560;-38
2024/04/10 03:28:08;;;;;;;2.80;0.70;;;;;;;;;;5378460;26;20613;-44
2024/04/10 03:30:35;;;;;;;2.42;0.50;;;;;;;;;;5378250;26;20311;-37
2024/04/10 03:33:01;;;;;;;1.73;0.50;;;;;;;;;;5364165;26;20317;-44
2024/04/10 03:35:28;;;;;;;1.90;0.80;;;;;;;;;;5357125;26;20305;-37
2024/04/10 03:37:53;;;;;;;11.80;1.17;;;;;;;;;;5359266;26;20238;-35
2024/04/10 03:40:21;;;;;;;6.50;1.08;;;;;;;;;;5363734;26;20238;-38
2024/04/10 03:42:48;;;;;;;10.90;1.33;;;;;;;;;;5363910;26;20245;-40
2024/04/10 03:45:14;;;;;;;17.02;1.50;;;;;;;;;;5370090;26;20497;-41
2024/04/10 03:47:41;;;;;;;4.78;1.20;;;;;;;;;;5369080;26;20284;-41
2024/04/10 03:50:07;;;;;;;9.27;1.48;;;;;;;;;;5374048;26;20332;-41
2024/04/10 03:52:33;;;;;;;6.35;1.80;;;;;;;;;;5372070;26;20221;-41
2024/04/10 03:54:59;;;;;;;6.95;1.50;;;;;;;;;;5374879;26;20277;-41
2024/04/10 03:57:25;;;;;;;5.38;1.35;;;;;;;;;;5355125;26;20235;-41
2024/04/10 03:59:51;;;;;;;5.68;1.10;;;;;;;;;;5375729;26;20272;-40
2024/04/10 04:02:17;;;;;;;8.82;1.75;;;;;;;;;;5380584;26;20237;-40
2024/04/10 04:04:43;;;;;;;9.32;2.33;;;;;;;;;;5379259;26;20571;-40
2024/04/10 04:07:09;;;;;;;11.07;2.80;;;;;;;;;;5364265;26;20237;-42
2024/04/10 04:09:35;;;;;;;8.07;2.67;;;;;;;;;;5374012;26;20751;-43
2024/04/10 04:12:01;;;;;;;13.30;1.80;;;;;;;;;;5357181;26;20234;-40
2024/04/10 04:14:27;;;;;;;7.95;2.00;;;;;;;;;;5383735;26;20533;-49
2024/04/10 04:16:53;;;;;;;11.73;1.90;;;;;;;;;;5386729;26;20241;-48
2024/04/10 04:19:19;;;;;;;6.47;1.77;;;;;;;;;;5394466;26;20331;-40
2024/04/10 04:21:45;;;;;;;7.50;2.30;;;;;;;;;;5378962;26;20234;-39
2024/04/10 04:24:11;;;;;;;9.55;1.38;;;;;;;;;;5365891;26;20288;-45
2024/04/10 04:26:37;;;;;;;8.75;1.85;;;;;;;;;;5359658;26;20238;-44
2024/04/10 04:29:03;;;;;;;11.05;1.88;;;;;;;;;;5379374;26;20462;-44
2024/04/10 04:31:29;;;;;;;10.32;1.60;;;;;;;;;;5371177;26;20241;-44
2024/04/10 04:33:55;;;;;;;7.30;1.90;;;;;;;;;;5372405;26;20251;-44
2024/04/10 04:36:21;;;;;;;7.57;1.73;;;;;;;;;;5372238;26;20297;-44
2024/04/10 04:38:47;;;;;;;5.35;1.63;;;;;;;;;;5376744;26;20255;-44
2024/04/10 04:41:13;;;;;;;5.63;1.30;;;;;;;;;;5381287;26;20325;-44
2024/04/10 04:43:39;;;;;;;5.72;1.52;;;;;;;;;;5373244;26;20246;-44
2024/04/10 04:46:11;;;;;;;7.38;1.70;;;;;;;;;;5383317;26;20233;-44
2024/04/10 04:48:37;;;;;;;6.50;1.55;;;;;;;;;;5368025;26;20284;-45
2024/04/10 04:51:07;;;;;;;3.63;1.42;;;;;;;;;;5377311;26;20242;-44
2024/04/10 04:53:33;;;;;;;5.13;1.30;;;;;;;;;;5380699;26;20580;-44
2024/04/10 04:55:59;;;;;;;5.03;1.48;;;;;;;;;;5379650;26;20242;-44
2024/04/10 04:58:25;;;;;;;4.72;1.40;;;;;;;;;;5359207;26;20245;-44
2024/04/10 05:00:51;;;;;;;6.22;1.33;;;;;;;;;;5363999;26;20614;-45
2024/04/10 05:06:04;;;;;;;4.97;1.35;;;;;;;;;;5354422;26;20296;-44
2024/04/10 05:08:30;;;;;;;3.90;1.33;;;;;;;;;;5366406;26;20280;-44
2024/04/10 05:10:56;;;;;;;3.72;1.35;;;;;;;;;;5371266;26;20249;-44
2024/04/10 05:13:22;;;;;;;2.90;0.98;;;;;;;;;;5369686;26;20328;-45
2024/04/10 05:15:48;;;;;;;3.42;1.25;;;;;;;;;;5363315;26;20235;-44
2024/04/10 05:18:14;;;;;;;2.10;0.90;;;;;;;;;;5372099;26;20314;-44
2024/04/10 05:20:39;;;;;;;5.45;1.10;;;;;;;;;;5392380;26;20812;-44
2024/04/10 05:23:05;;;;;;;2.95;1.00;;;;;;;;;;5377992;26;20228;-44
2024/04/10 05:25:31;;;;;;;2.60;1.10;;;;;;;;;;5378434;26;20237;-45
2024/04/10 05:27:57;;;;;;;3.88;1.35;;;;;;;;;;5365153;26;20294;-44
2024/04/10 05:30:23;;;;;;;2.55;1.13;;;;;;;;;;5382499;26;20237;-44
2024/04/10 05:32:49;;;;;;;3.00;1.15;;;;;;;;;;5390819;26;20233;-44
2024/04/10 05:35:15;;;;;;;2.70;0.90;;;;;;;;;;5386483;26;20244;-44
2024/04/10 05:37:41;;;;;;;2.47;1.00;;;;;;;;;;5394144;26;20232;-44
2024/04/10 05:40:13;;;;;;;1.38;1.10;;;;;;;;;;5364651;26;20456;-44
2024/04/10 05:42:40;;;;;;;1.25;1.00;;;;;;;;;;5371221;26;20230;-44
2024/04/10 05:45:10;;;;;;;1.98;0.95;;;;;;;;;;5353031;26;20241;-44
2024/04/10 05:47:36;;;;;;;2.42;1.25;;;;;;;;;;5356212;26;20324;-44
2024/04/10 05:50:02;;;;;;;3.58;0.95;;;;;;;;;;5400576;26;20597;-44
2024/04/10 05:52:28;;;;;;;3.13;1.20;;;;;;;;;;5400740;26;20276;-44
2024/04/10 05:54:54;;;;;;;2.67;1.00;;;;;;;;;;5397877;26;20226;-44
2024/04/10 05:57:21;;;;;;;1.88;1.10;;;;;;;;;;5369408;26;20305;-44
2024/04/10 05:59:47;;;;;;;1.98;0.80;;;;;;;;;;5372415;26;20268;-44
2024/04/10 06:02:13;;;;;;;4.68;1.40;;;;;;;;;;5377828;26;20225;-44
2024/04/10 06:04:39;;;;;;;1.40;0.90;;;;;;;;;;5370660;26;20285;-44
2024/04/10 06:07:05;;;;;;;1.77;0.90;;;;;;;;;;5392997;26;20242;-44
2024/04/10 06:09:30;;;;;;;1.65;0.90;;;;;;;;;;5389188;26;20269;-44
2024/04/10 06:11:56;;;;;;;2.25;1.00;;;;;;;;;;5376481;26;20354;-44
2024/04/10 06:14:22;;;;;;;3.65;1.02;;;;;;;;;;5369279;26;20517;-44
2024/04/10 06:16:48;;;;;;;1.95;1.20;;;;;;;;;;5374566;26;20311;-44
2024/04/10 06:19:14;;;;;;;1.48;0.80;;;;;;;;;;5386701;26;20232;-44
2024/04/10 06:21:40;;;;;;;1.60;1.00;;;;;;;;;;5367889;26;20230;-44
2024/04/10 06:24:07;;;;;;;1.35;0.75;;;;;;;;;;5363847;26;20774;-44
2024/04/10 06:26:33;;;;;;;1.20;0.68;;;;;;;;;;5381971;26;20504;-44
2024/04/10 06:28:59;;;;;;;2.60;0.95;;;;;;;;;;5384054;26;20306;-44
2024/04/10 06:31:25;;;;;;;1.67;0.70;;;;;;;;;;5377901;26;20293;-44
2024/04/10 06:33:51;;;;;;;1.38;0.75;;;;;;;;;;5360039;26;20281;-44
2024/04/10 06:36:17;;;;;;;2.10;0.90;;;;;;;;;;5389179;26;20288;-44
2024/04/10 06:38:43;;;;;;;0.82;0.70;;;;;;;;;;5373230;26;20234;-44
2024/04/10 06:41:09;;;;;;;1.05;0.68;;;;;;;;;;5394279;26;20327;-44
2024/04/10 06:43:35;;;;;;;1.85;0.93;;;;;;;;;;5364572;26;20656;-44
2024/04/10 06:46:07;;;;;;;1.02;0.80;;;;;;;;;;5404297;26;20222;-45
2024/04/10 06:48:33;;;;;;;1.15;1.00;;;;;;;;;;5395183;26;20249;-44
2024/04/10 06:51:00;;;;;;;0.90;0.70;;;;;;;;;;5399990;26;20233;-44
2024/04/10 06:53:26;;;;;;;1.35;0.75;;;;;;;;;;5377306;26;20839;-44
2024/04/10 06:55:56;;;;;;;2.28;0.55;;;;;;;;;;5396780;26;20699;-44
2024/04/10 06:58:25;;;;;;;2.33;1.10;;;;;;;;;;5387993;26;20229;-44
2024/04/10 07:01:00;;;;;;;2.40;0.70;;;;;;;;;;5396288;26;20248;-44
2024/04/10 07:03:27;;;;;;;0.70;0.60;;;;;;;;;;5363758;26;20217;-44
2024/04/10 07:06:22;;;;;;;1.67;0.90;;;;;;;;;;5383864;26;20503;-44
2024/04/10 07:08:49;;;;;;;0.73;0.73;;;;;;;;;;5384978;26;20222;-44
2024/04/10 07:11:16;;;;;;;1.63;0.70;;;;;;;;;;5382244;26;20233;-44
2024/04/10 07:13:43;;;;;;;2.90;0.70;;;;;;;;;;5399715;26;20628;-44
2024/04/10 07:16:08;;;;;;;1.20;0.80;;;;;;;;;;5384092;26;20229;-44
2024/04/10 07:18:34;;;;;;;1.33;0.80;;;;;;;;;;5399478;26;20228;-44
2024/04/10 07:21:03;;;;;;;1.45;0.77;;;;;;;;;;5361949;26;20634;-44
2024/04/10 07:23:29;;;;;;;1.90;0.70;;;;;;;;;;5384610;26;20261;-44
2024/04/10 07:25:56;;;;;;;1.65;0.60;;;;;;;;;;5384934;26;20233;-44
2024/04/10 07:28:22;;;;;;;1.58;0.70;;;;;;;;;;5385312;26;20226;-44
2024/04/10 07:30:48;;;;;;;1.70;0.80;;;;;;;;;;5378334;26;20237;-45
2024/04/10 07:33:14;;;;;;;1.50;0.60;;;;;;;;;;5397063;26;20440;-44
2024/04/10 07:35:41;;;;;;;1.52;0.68;;;;;;;;;;5400167;26;20289;-44
2024/04/10 07:38:06;;;;;;;1.65;0.68;;;;;;;;;;5402185;26;20234;-44
2024/04/10 07:40:32;;;;;;;1.23;0.95;;;;;;;;;;5400397;26;20306;-44
2024/04/10 07:42:58;;;;;;;1.42;0.80;;;;;;;;;;5393915;26;20233;-44
2024/04/10 07:45:27;;;;;;;0.88;0.70;;;;;;;;;;5390668;26;20322;-44
2024/04/10 07:47:53;;;;;;;1.27;0.75;;;;;;;;;;5379651;26;20237;-44
2024/04/10 07:50:19;;;;;;;1.85;0.65;;;;;;;;;;5383814;26;20229;-44
2024/04/10 07:52:46;;;;;;;2.05;0.60;;;;;;;;;;5371676;26;20450;-44
2024/04/10 07:55:12;;;;;;;0.80;0.80;;;;;;;;;;5370472;26;20320;-44
2024/04/10 07:57:38;;;;;;;0.98;0.70;;;;;;;;;;5376521;26;20234;-44
2024/04/10 08:00:04;;;;;;;1.25;0.70;;;;;;;;;;5378612;26;20237;-45
2024/04/10 08:02:30;;;;;;;1.55;0.90;;;;;;;;;;5371497;26;20303;-45
2024/04/10 08:04:56;;;;;;;1.85;0.90;;;;;;;;;;5366342;26;20238;-44
2024/04/10 08:07:23;;;;;;;2.95;0.90;;;;;;;;;;5391556;26;20590;-44
2024/04/10 08:09:48;;;;;;;0.82;0.70;;;;;;;;;;5370697;26;20281;-44
2024/04/10 08:12:14;;;;;;;1.50;0.80;;;;;;;;;;5375974;26;20238;-46
2024/04/10 08:14:41;;;;;;;2.40;0.80;;;;;;;;;;5370750;26;20233;-44
2024/04/10 08:17:06;;;;;;;0.57;0.55;;;;;;;;;;5373585;26;20237;-44
2024/04/10 08:19:32;;;;;;;1.23;0.70;;;;;;;;;;5389791;26;20639;-44
2024/04/10 08:21:58;;;;;;;1.73;0.90;;;;;;;;;;5380056;26;20284;-44
2024/04/10 08:24:24;;;;;;;1.83;0.80;;;;;;;;;;5402705;26;20313;-44
2024/04/10 08:26:50;;;;;;;0.98;0.63;;;;;;;;;;5382469;26;20247;-44
2024/04/10 08:29:16;;;;;;;1.33;0.75;;;;;;;;;;5381860;26;20269;-44
2024/04/10 08:31:42;;;;;;;1.33;0.70;;;;;;;;;;5378315;26;20316;-44
2024/04/10 08:34:09;;;;;;;1.13;0.55;;;;;;;;;;5398972;26;20774;-44
2024/04/10 08:36:35;;;;;;;2.35;0.82;;;;;;;;;;5390491;26;20740;-44
2024/04/10 08:39:01;;;;;;;1.13;0.60;;;;;;;;;;5373960;26;20246;-44
2024/04/10 08:41:27;;;;;;;0.98;0.70;;;;;;;;;;5364995;26;20301;-44
2024/04/10 08:43:54;;;;;;;1.15;0.50;;;;;;;;;;5366628;26;20231;-44
2024/04/10 08:46:21;;;;;;;0.80;0.60;;;;;;;;;;5381102;26;20281;-45
2024/04/10 08:48:52;;;;;;;0.80;0.68;;;;;;;;;;5385039;26;20273;-45
2024/04/10 08:51:18;;;;;;;1.35;0.90;;;;;;;;;;5374584;26;20272;-44
2024/04/10 08:53:45;;;;;;;1.40;0.80;;;;;;;;;;5389385;26;20238;-44
2024/04/10 08:56:11;;;;;;;1.05;0.75;;;;;;;;;;5368591;26;20284;-44
2024/04/10 08:58:38;;;;;;;2.33;0.93;;;;;;;;;;5364295;26;20237;-44
2024/04/10 09:01:04;;;;;;;1.23;0.65;;;;;;;;;;5378699;26;20276;-44
2024/04/10 09:03:30;;;;;;;0.88;0.80;;;;;;;;;;5360595;26;20236;-44
2024/04/10 09:06:06;;;;;;;0.63;0.63;;;;;;;;;;5380055;26;20250;-44
2024/04/10 09:08:32;;;;;;;1.10;0.60;;;;;;;;;;5372455;26;20248;-44
2024/04/10 09:10:58;;;;;;;2.20;0.90;;;;;;;;;;5388684;26;20731;-45
2024/04/10 09:13:24;;;;;;;1.35;0.70;;;;;;;;;;5382882;26;20280;-52
2024/04/10 09:16:00;;;;;;;2.72;1.10;;;;;;;;;;5382309;26;20511;-45
2024/04/10 09:18:26;;;;;;;1.23;0.60;;;;;;;;;;5371722;26;20253;-45
2024/04/10 09:21:07;;;;;;;0.88;0.70;;;;;;;;;;5368821;26;20243;-44
2024/04/10 09:23:33;;;;;;;1.33;0.65;;;;;;;;;;5369233;26;20577;-44
2024/04/10 09:25:59;;;;;;;3.65;1.10;;;;;;;;;;5386131;26;20229;-44
2024/04/10 09:28:25;;;;;;;1.15;0.85;;;;;;;;;;5378302;26;20221;-45
2024/04/10 09:30:57;;;;;;;1.27;0.60;;;;;;;;;;5366810;26;20245;-45
2024/04/10 09:33:23;;;;;;;2.13;0.70;;;;;;;;;;5375260;26;20318;-45
2024/04/10 09:35:49;;;;;;;0.93;0.90;;;;;;;;;;5393999;26;20531;-44
2024/04/10 09:38:15;;;;;;;2.33;0.90;;;;;;;;;;5361816;26;20243;-45
2024/04/10 09:40:44;;;;;;;1.67;0.85;;;;;;;;;;5372867;26;20233;-45
2024/04/10 09:44:57;;;;;;;1.30;1.13;;;;;;;;;;5459470;26;20703;-42
2024/04/10 09:47:24;;;;;;;1.70;0.80;;;;;;;;;;5465656;26;20227;-44
2024/04/10 09:49:51;;;;;;;1.10;0.73;;;;;;;;;;5447824;26;20231;-45
2024/04/10 09:52:18;;;;;;;0.73;0.60;;;;;;;;;;5455945;26;20259;-44
2024/04/10 09:54:44;;;;;;;1.77;0.80;;;;;;;;;;5462828;26;20227;-44
2024/04/10 09:57:13;;;;;;;0.70;0.70;;;;;;;;;;5462036;26;20274;-44
2024/04/10 09:59:40;;;;;;;0.75;0.73;;;;;;;;;;5465873;26;20258;-44
2024/04/10 10:02:15;;;;;;;1.58;0.73;;;;;;;;;;5442159;26;20231;-44
2024/04/10 10:04:41;;;;;;;1.58;1.00;;;;;;;;;;5454939;26;20601;-44
2024/04/10 10:07:08;;;;;;;2.28;0.80;;;;;;;;;;5448743;26;20306;-45
2024/04/10 10:09:34;;;;;;;2.25;0.82;;;;;;;;;;5440941;26;20282;-45
2024/04/10 10:12:00;;;;;;;1.65;0.80;;;;;;;;;;5440519;26;20567;-44
2024/04/10 10:14:26;;;;;;;1.73;0.82;;;;;;;;;;5441373;26;20212;-45
2024/04/10 10:16:54;;;;;;;3.60;1.00;;;;;;;;;;5441411;26;20255;-45
2024/04/10 10:19:25;;;;;;;1.10;0.70;;;;;;;;;;5441194;26;20220;-44
2024/04/10 10:21:59;;;;;;;1.23;0.70;;;;;;;;;;5440509;26;20173;-45
2024/04/10 10:24:26;;;;;;;3.40;1.15;;;;;;;;;;5440847;26;20198;-44
2024/04/10 10:27:02;;;;;;;2.05;0.80;;;;;;;;;;5441111;26;20258;-44
2024/04/10 10:29:31;;;;;;;1.98;0.95;;;;;;;;;;5441161;26;20211;-44
2024/04/10 10:32:07;;;;;;;1.08;0.80;;;;;;;;;;5444028;26;20238;-44
2024/04/10 10:34:33;;;;;;;1.52;0.80;;;;;;;;;;5461544;26;20230;-45
2024/04/10 10:37:08;;;;;;;1.83;0.70;;;;;;;;;;5454512;26;20285;-44
2024/04/10 10:39:43;;;;;;;3.25;0.90;;;;;;;;;;5455699;26;20323;-44
2024/04/10 10:42:09;;;;;;;1.50;0.95;;;;;;;;;;5457832;26;20309;-45
2024/04/10 10:44:35;;;;;;;1.73;0.70;;;;;;;;;;5459769;26;20517;-44
2024/04/10 10:47:07;;;;;;;2.90;1.02;;;;;;;;;;5452280;26;20243;-44
2024/04/10 10:49:33;;;;;;;1.35;1.00;;;;;;;;;;5451306;26;20232;-45
2024/04/10 10:51:59;;;;;;;1.05;0.77;;;;;;;;;;5456018;26;20273;-44
2024/04/10 10:54:25;;;;;;;2.55;0.75;;;;;;;;;;5459591;26;20717;-45
2024/04/10 10:56:51;;;;;;;1.50;0.90;;;;;;;;;;5453627;26;20231;-44
2024/04/10 10:59:17;;;;;;;1.77;1.00;;;;;;;;;;5450940;26;20328;-45
2024/04/10 11:01:43;;;;;;;3.38;0.85;;;;;;;;;;5447296;26;20277;-45
2024/04/10 11:04:15;;;;;;;1.38;0.93;;;;;;;;;;5437959;26;20726;-44
2024/04/10 11:06:42;;;;;;;2.97;1.08;;;;;;;;;;5452650;26;20273;-44
2024/04/10 11:09:12;;;;;;;3.35;1.10;;;;;;;;;;5450021;26;20281;-44
2024/04/10 11:11:38;;;;;;;2.00;0.95;;;;;;;;;;5441536;26;20282;-44
2024/04/10 11:14:04;;;;;;;2.10;0.80;;;;;;;;;;5438533;26;20270;-44
2024/04/10 11:16:31;;;;;;;4.20;1.23;;;;;;;;;;5445268;26;20228;-44
2024/04/10 11:18:57;;;;;;;4.90;1.42;;;;;;;;;;5456312;26;20227;-45
2024/04/10 11:21:23;;;;;;;3.08;1.33;;;;;;;;;;5431257;26;20235;-44
2024/04/10 11:23:49;;;;;;;2.38;1.27;;;;;;;;;;5452383;26;20377;-44
2024/04/10 11:26:15;;;;;;;4.18;1.50;;;;;;;;;;5453912;26;20606;-44
2024/04/10 11:28:41;;;;;;;4.70;1.30;;;;;;;;;;5445168;26;20694;-39
2024/04/10 11:31:10;;;;;;;6.63;1.55;;;;;;;;;;5443853;26;20240;-39
2024/04/10 11:33:36;;;;;;;4.78;1.60;;;;;;;;;;5453385;26;20332;-41
2024/04/10 11:36:02;;;;;;;6.97;1.30;;;;;;;;;;5436549;26;20351;-37
2024/04/10 11:38:29;;;;;;;6.60;1.33;;;;;;;;;;5440115;26;20231;-42
2024/04/10 11:40:55;;;;;;;4.40;1.40;;;;;;;;;;5453892;26;20274;-48
2024/04/10 11:43:21;;;;;;;4.57;1.63;;;;;;;;;;5453473;26;20243;-47
2024/04/10 11:45:47;;;;;;;3.70;1.20;;;;;;;;;;5443217;26;20239;-40
2024/04/10 11:48:13;;;;;;;4.35;1.05;;;;;;;;;;5435769;26;20309;-40
2024/04/10 11:50:40;;;;;;;3.30;1.58;;;;;;;;;;5448998;26;20232;-40
2024/04/10 11:53:06;;;;;;;3.20;1.33;;;;;;;;;;5442877;26;20231;-40
2024/04/10 11:55:33;;;;;;;6.55;1.70;;;;;;;;;;5449879;26;20299;-40
2024/04/10 11:57:59;;;;;;;7.78;1.20;;;;;;;;;;5446627;26;20298;-43
2024/04/10 12:00:24;;;;;;;5.30;1.13;;;;;;;;;;5440448;26;20232;-47
2024/04/10 12:02:50;;;;;;;5.47;1.80;;;;;;;;;;5451315;26;20231;-43
2024/04/10 12:05:16;;;;;;;3.83;1.48;;;;;;;;;;5443887;26;20235;-43
2024/04/10 12:07:42;;;;;;;5.40;1.40;;;;;;;;;;5445145;26;20378;-43
2024/04/10 12:10:08;;;;;;;5.35;1.13;;;;;;;;;;5446054;26;20302;-44
2024/04/10 12:12:35;;;;;;;6.72;1.60;;;;;;;;;;5454062;26;20240;-44
2024/04/10 12:15:01;;;;;;;6.88;1.40;;;;;;;;;;5452051;26;20606;-43
2024/04/10 12:17:29;;;;;;;3.70;1.00;;;;;;;;;;5432172;26;20232;-43
2024/04/10 12:19:55;;;;;;;5.53;1.52;;;;;;;;;;5443043;26;20287;-42
2024/04/10 12:22:21;;;;;;;13.70;2.80;;;;;;;;;;5437480;26;20231;-42
2024/04/10 12:24:47;;;;;;;4.85;1.63;;;;;;;;;;5452123;26;20313;-42
2024/04/10 12:27:13;;;;;;;6.43;2.05;;;;;;;;;;5435505;26;20497;-41
2024/04/10 12:29:38;;;;;;;5.35;1.35;;;;;;;;;;5428128;26;20297;-42
2024/04/10 12:32:05;;;;;;;8.73;1.35;;;;;;;;;;5448089;26;20555;-41
2024/04/10 12:34:30;;;;;;;8.90;1.83;;;;;;;;;;5433443;26;20456;-41
2024/04/10 12:39:41;;;;;;;8.27;2.13;;;;;;;;;;5447909;26;20249;-41
2024/04/10 12:42:07;;;;;;;6.20;1.33;;;;;;;;;;5450816;26;20223;-42
2024/04/10 12:44:35;;;;;;;5.05;1.48;;;;;;;;;;5447042;26;20753;-42
2024/04/10 12:47:01;;;;;;;3.90;1.25;;;;;;;;;;5433952;26;20223;-42
2024/04/10 12:49:31;;;;;;;4.95;1.40;;;;;;;;;;5433438;26;20295;-42
2024/04/10 12:51:57;;;;;;;3.65;1.33;;;;;;;;;;5446850;26;20299;-42
2024/04/10 12:54:23;;;;;;;3.70;1.30;;;;;;;;;;5451727;26;20231;-42
2024/04/10 12:56:49;;;;;;;2.88;1.55;;;;;;;;;;5451290;26;20302;-42
2024/04/10 12:59:15;;;;;;;3.28;1.30;;;;;;;;;;5448664;26;20227;-42
2024/04/10 13:01:41;;;;;;;2.25;1.30;;;;;;;;;;5444544;26;20242;-42
2024/04/10 13:04:07;;;;;;;5.97;1.48;;;;;;;;;;5442625;26;20283;-42
2024/04/10 13:06:33;;;;;;;2.30;1.05;;;;;;;;;;5454501;26;20227;-42
2024/04/10 13:08:59;;;;;;;5.32;1.25;;;;;;;;;;5455341;26;20548;-41
2024/04/10 13:11:25;;;;;;;4.57;1.45;;;;;;;;;;5440332;26;20248;-42
2024/04/10 13:13:51;;;;;;;4.18;1.50;;;;;;;;;;5451141;26;20378;-42
2024/04/10 13:16:17;;;;;;;3.22;1.25;;;;;;;;;;5447904;26;20236;-42
2024/04/10 13:18:43;;;;;;;1.17;0.90;;;;;;;;;;5445068;26;20466;-41
2024/04/10 13:21:09;;;;;;;2.90;1.33;;;;;;;;;;5449041;26;20274;-41
2024/04/10 13:23:37;;;;;;;1.90;1.17;;;;;;;;;;5447683;26;20232;-41
2024/04/10 13:26:10;;;;;;;3.42;1.30;;;;;;;;;;5448864;26;20599;-41
2024/04/10 13:28:36;;;;;;;3.30;1.20;;;;;;;;;;5451831;26;20302;-42
2024/04/10 13:31:11;;;;;;;2.13;1.20;;;;;;;;;;5448421;26;20282;-41
2024/04/10 13:33:41;;;;;;;3.80;1.60;;;;;;;;;;5448593;26;20253;-41
2024/04/10 13:36:13;;;;;;;5.75;1.98;;;;;;;;;;5435502;26;20783;-41
2024/04/10 13:38:42;;;;;;;4.22;1.30;;;;;;;;;;5440858;26;20347;-42
2024/04/10 13:41:11;;;;;;;5.57;1.55;;;;;;;;;;5445074;26;20224;-42
2024/04/10 13:43:49;;;;;;;2.97;1.27;;;;;;;;;;5451033;26;20309;-42
2024/04/10 13:46:15;;;;;;;4.60;1.20;;;;;;;;;;5432520;26;21026;-42
2024/04/10 13:48:43;;;;;;;2.80;1.35;;;;;;;;;;5448002;26;20223;-42
2024/04/10 13:51:10;;;;;;;2.78;1.10;;;;;;;;;;5436302;26;20267;-42
2024/04/10 13:53:36;;;;;;;2.28;1.13;;;;;;;;;;5443200;26;20275;-42
2024/04/10 13:56:05;;;;;;;2.30;1.55;;;;;;;;;;5446152;26;20258;-42
2024/04/10 13:58:32;;;;;;;2.72;1.08;;;;;;;;;;5436947;26;20422;-42
2024/04/10 14:00:58;;;;;;;2.08;1.08;;;;;;;;;;5439006;26;20231;-42
2024/04/10 14:03:24;;;;;;;1.95;1.15;;;;;;;;;;5439035;26;20326;-42
2024/04/10 14:06:02;;;;;;;3.72;1.40;;;;;;;;;;5438045;26;20263;-41
2024/04/10 14:08:30;;;;;;;4.10;1.17;;;;;;;;;;5436586;26;20232;-41
2024/04/10 14:10:58;;;;;;;1.33;1.20;;;;;;;;;;5451182;26;20216;-42
2024/04/10 14:13:24;;;;;;;3.03;0.98;;;;;;;;;;5455969;26;20231;-42
2024/04/10 14:15:59;;;;;;;3.35;1.23;;;;;;;;;;5440926;26;20308;-41
2024/04/10 14:18:26;;;;;;;3.60;1.42;;;;;;;;;;5435247;26;20698;-42
2024/04/10 14:20:58;;;;;;;2.80;0.82;;;;;;;;;;5441544;26;20227;-42
2024/04/10 14:23:24;;;;;;;2.15;1.08;;;;;;;;;;5438984;26;20281;-42
2024/04/10 14:25:54;;;;;;;3.50;1.00;;;;;;;;;;5435035;26;20867;-42
2024/04/10 14:28:20;;;;;;;1.70;1.08;;;;;;;;;;5418226;26;20274;-42
2024/04/10 14:31:06;;;;;;;2.55;0.82;;;;;;;;;;5424948;26;20233;-42
2024/04/10 14:33:32;;;;;;;3.85;1.10;;;;;;;;;;5450971;26;20299;-41
2024/04/10 14:35:58;;;;;;;3.45;1.02;;;;;;;;;;5443020;26;20228;-41
2024/04/10 14:38:26;;;;;;;3.90;1.00;;;;;;;;;;5451004;26;20301;-42
2024/04/10 14:40:52;;;;;;;2.13;1.00;;;;;;;;;;5432591;26;20228;-43
2024/04/10 14:43:18;;;;;;;2.05;0.85;;;;;;;;;;5431174;26;20603;-42
2024/04/10 14:45:45;;;;;;;1.23;0.80;;;;;;;;;;5434195;26;20232;-42
2024/04/10 14:48:11;;;;;;;1.75;0.90;;;;;;;;;;5452544;26;20443;-42